sensor_id;sensor_type;location;lat;lon;timestamp;temperature;humidity
8459;DHT22;4266;48.816;9.154;2022-10-16T00:00:36;16.00;99.90
8459;DHT22;4266;48.816;9.154;2022-10-16T00:03:02;16.00;99.90
8459;DHT22;4266;48.816;9.154;2022-10-16T00:05:27;16.00;99.90
8459;DHT22;4266;48.816;9.154;2022-10-16T00:07:53;16.00;99.90
8459;DHT22;4266;48.816;9.154;2022-10-16T00:10:19;15.90;99.90
8459;DHT22;4266;48.816;9.154;2022-10-16T00:12:45;15.90;99.90
8459;DHT22;4266;48.816;9.154;2022-10-16T00:15:11;15.90;99.90
8459;DHT22;4266;48.816;9.154;2022-10-16T00:17:36;15.80;99.90
8459;DHT22;4266;48.816;9.154;2022-10-16T00:20:03;15.80;99.90
8459;DHT22;4266;48.816;9.154;2022-10-16T00:22:29;15.90;99.90
8459;DHT22;4266;48.816;9.154;2022-10-16T00:24:54;15.80;99.90
8459;DHT22;4266;48.816;9.154;2022-10-16T00:27:20;15.80;99.90
8459;DHT22;4266;48.816;9.154;2022-10-16T00:29:49;15.60;99.90
8459;DHT22;4266;48.816;9.154;2022-10-16T00:32:12;15.50;99.90
8459;DHT22;4266;48.816;9.154;2022-10-16T00:34:38;15.50;99.90
8459;DHT22;4266;48.816;9.154;2022-10-16T00:37:03;15.50;99.90
8459;DHT22;4266;48.816;9.154;2022-10-16T00:39:29;15.40;99.90
8459;DHT22;4266;48.816;9.154;2022-10-16T00:41:55;15.50;99.90
8459;DHT22;4266;48.816;9.154;2022-10-16T00:46:58;15.40;99.90
8459;DHT22;4266;48.816;9.154;2022-10-16T00:49:24;15.40;99.90
8459;DHT22;4266;48.816;9.154;2022-10-16T00:51:50;15.30;99.90
8459;DHT22;4266;48.816;9.154;2022-10-16T00:54:18;15.10;99.90
8459;DHT22;4266;48.816;9.154;2022-10-16T00:56:43;15.10;99.90
8459;DHT22;4266;48.816;9.154;2022-10-16T00:59:14;15.00;99.90
8459;DHT22;4266;48.816;9.154;2022-10-16T01:01:36;15.00;99.90
8459;DHT22;4266;48.816;9.154;2022-10-16T01:04:02;15.10;99.90
8459;DHT22;4266;48.816;9.154;2022-10-16T01:06:32;15.20;99.90
8459;DHT22;4266;48.816;9.154;2022-10-16T01:09:17;15.20;99.90
8459;DHT22;4266;48.816;9.154;2022-10-16T01:11:53;15.20;99.90
8459;DHT22;4266;48.816;9.154;2022-10-16T01:14:19;15.10;99.90
8459;DHT22;4266;48.816;9.154;2022-10-16T01:16:46;15.20;99.90
8459;DHT22;4266;48.816;9.154;2022-10-16T01:19:12;15.20;99.90
8459;DHT22;4266;48.816;9.154;2022-10-16T01:21:38;15.20;99.90
8459;DHT22;4266;48.816;9.154;2022-10-16T01:29:44;15.40;99.90
8459;DHT22;4266;48.816;9.154;2022-10-16T01:32:15;15.40;99.90
8459;DHT22;4266;48.816;9.154;2022-10-16T01:34:42;15.30;99.90
8459;DHT22;4266;48.816;9.154;2022-10-16T01:37:05;15.30;99.90
8459;DHT22;4266;48.816;9.154;2022-10-16T01:39:31;15.30;99.90
8459;DHT22;4266;48.816;9.154;2022-10-16T01:42:00;15.40;99.90
8459;DHT22;4266;48.816;9.154;2022-10-16T01:44:25;15.40;99.90
8459;DHT22;4266;48.816;9.154;2022-10-16T01:46:50;15.30;99.90
8459;DHT22;4266;48.816;9.154;2022-10-16T01:49:16;15.30;99.90
8459;DHT22;4266;48.816;9.154;2022-10-16T01:51:41;15.20;99.90
8459;DHT22;4266;48.816;9.154;2022-10-16T01:54:07;15.30;99.90
8459;DHT22;4266;48.816;9.154;2022-10-16T01:56:33;15.40;99.90
8459;DHT22;4266;48.816;9.154;2022-10-16T01:59:00;15.40;99.90
8459;DHT22;4266;48.816;9.154;2022-10-16T02:01:24;15.40;99.90
8459;DHT22;4266;48.816;9.154;2022-10-16T02:03:51;15.50;99.90
8459;DHT22;4266;48.816;9.154;2022-10-16T02:06:15;15.60;99.90
8459;DHT22;4266;48.816;9.154;2022-10-16T02:08:42;15.70;99.90
8459;DHT22;4266;48.816;9.154;2022-10-16T02:11:08;15.80;99.90
8459;DHT22;4266;48.816;9.154;2022-10-16T02:13:41;15.80;99.90
8459;DHT22;4266;48.816;9.154;2022-10-16T02:16:05;15.80;99.90
8459;DHT22;4266;48.816;9.154;2022-10-16T02:18:31;15.70;99.90
8459;DHT22;4266;48.816;9.154;2022-10-16T02:21:00;15.70;99.90
8459;DHT22;4266;48.816;9.154;2022-10-16T02:23:45;15.80;99.90
8459;DHT22;4266;48.816;9.154;2022-10-16T02:26:12;15.80;99.90
8459;DHT22;4266;48.816;9.154;2022-10-16T02:28:40;15.70;99.90
8459;DHT22;4266;48.816;9.154;2022-10-16T02:31:04;15.70;99.90
8459;DHT22;4266;48.816;9.154;2022-10-16T02:33:30;15.80;99.90
8459;DHT22;4266;48.816;9.154;2022-10-16T02:35:56;15.70;99.90
8459;DHT22;4266;48.816;9.154;2022-10-16T02:38:21;15.70;99.90
8459;DHT22;4266;48.816;9.154;2022-10-16T02:40:47;15.60;99.90
8459;DHT22;4266;48.816;9.154;2022-10-16T02:43:13;15.60;99.90
8459;DHT22;4266;48.816;9.154;2022-10-16T02:45:38;15.50;99.90
8459;DHT22;4266;48.816;9.154;2022-10-16T02:48:05;15.40;99.90
8459;DHT22;4266;48.816;9.154;2022-10-16T02:50:31;15.40;99.90
8459;DHT22;4266;48.816;9.154;2022-10-16T02:52:57;15.40;99.90
8459;DHT22;4266;48.816;9.154;2022-10-16T02:55:23;15.30;99.90
8459;DHT22;4266;48.816;9.154;2022-10-16T02:57:49;15.40;99.90
8459;DHT22;4266;48.816;9.154;2022-10-16T03:00:15;15.50;99.90
8459;DHT22;4266;48.816;9.154;2022-10-16T03:02:41;15.50;99.90
8459;DHT22;4266;48.816;9.154;2022-10-16T03:05:08;15.50;99.90
8459;DHT22;4266;48.816;9.154;2022-10-16T03:07:34;15.50;99.90
8459;DHT22;4266;48.816;9.154;2022-10-16T03:09:59;15.60;99.90
8459;DHT22;4266;48.816;9.154;2022-10-16T03:12:27;15.60;99.90
8459;DHT22;4266;48.816;9.154;2022-10-16T03:14:52;15.60;99.90
8459;DHT22;4266;48.816;9.154;2022-10-16T03:17:18;15.60;99.90
8459;DHT22;4266;48.816;9.154;2022-10-16T03:19:44;15.50;99.90
8459;DHT22;4266;48.816;9.154;2022-10-16T03:22:10;15.40;99.90
8459;DHT22;4266;48.816;9.154;2022-10-16T03:24:37;15.40;99.90
8459;DHT22;4266;48.816;9.154;2022-10-16T03:27:03;15.40;99.90
8459;DHT22;4266;48.816;9.154;2022-10-16T03:29:29;15.30;99.90
8459;DHT22;4266;48.816;9.154;2022-10-16T03:31:55;15.30;99.90
8459;DHT22;4266;48.816;9.154;2022-10-16T03:34:20;15.40;99.90
8459;DHT22;4266;48.816;9.154;2022-10-16T03:36:46;15.40;99.90
8459;DHT22;4266;48.816;9.154;2022-10-16T03:39:12;15.50;99.90
8459;DHT22;4266;48.816;9.154;2022-10-16T03:41:39;15.50;99.90
8459;DHT22;4266;48.816;9.154;2022-10-16T03:44:05;15.50;99.90
8459;DHT22;4266;48.816;9.154;2022-10-16T03:46:31;15.50;99.90
8459;DHT22;4266;48.816;9.154;2022-10-16T03:48:56;15.50;99.90
8459;DHT22;4266;48.816;9.154;2022-10-16T03:51:22;15.50;99.90
8459;DHT22;4266;48.816;9.154;2022-10-16T03:53:49;15.50;99.90
8459;DHT22;4266;48.816;9.154;2022-10-16T03:56:14;15.40;99.90
8459;DHT22;4266;48.816;9.154;2022-10-16T03:58:40;15.40;99.90
8459;DHT22;4266;48.816;9.154;2022-10-16T04:01:06;15.40;99.90
8459;DHT22;4266;48.816;9.154;2022-10-16T04:03:31;15.40;99.90
8459;DHT22;4266;48.816;9.154;2022-10-16T04:05:58;15.40;99.90
8459;DHT22;4266;48.816;9.154;2022-10-16T04:08:24;15.40;99.90
8459;DHT22;4266;48.816;9.154;2022-10-16T04:10:50;15.40;99.90
8459;DHT22;4266;48.816;9.154;2022-10-16T04:13:16;15.30;99.90
8459;DHT22;4266;48.816;9.154;2022-10-16T04:15:42;15.30;99.90
8459;DHT22;4266;48.816;9.154;2022-10-16T04:18:07;15.20;99.90
8459;DHT22;4266;48.816;9.154;2022-10-16T04:20:34;15.10;99.90
8459;DHT22;4266;48.816;9.154;2022-10-16T04:23:00;15.10;99.90
8459;DHT22;4266;48.816;9.154;2022-10-16T04:25:26;15.10;99.90
8459;DHT22;4266;48.816;9.154;2022-10-16T04:27:53;15.10;99.90
8459;DHT22;4266;48.816;9.154;2022-10-16T04:30:19;15.00;99.90
8459;DHT22;4266;48.816;9.154;2022-10-16T04:32:47;15.00;99.90
8459;DHT22;4266;48.816;9.154;2022-10-16T04:35:10;15.00;99.90
8459;DHT22;4266;48.816;9.154;2022-10-16T04:37:36;15.10;99.90
8459;DHT22;4266;48.816;9.154;2022-10-16T04:40:03;15.00;99.90
8459;DHT22;4266;48.816;9.154;2022-10-16T04:42:30;15.00;99.90
8459;DHT22;4266;48.816;9.154;2022-10-16T04:44:55;15.00;99.90
8459;DHT22;4266;48.816;9.154;2022-10-16T04:47:21;15.00;99.90
8459;DHT22;4266;48.816;9.154;2022-10-16T04:49:47;15.00;99.90
8459;DHT22;4266;48.816;9.154;2022-10-16T04:52:12;15.00;99.90
8459;DHT22;4266;48.816;9.154;2022-10-16T04:54:38;15.00;99.90
8459;DHT22;4266;48.816;9.154;2022-10-16T04:57:04;15.00;99.90
8459;DHT22;4266;48.816;9.154;2022-10-16T04:59:30;15.00;99.90
8459;DHT22;4266;48.816;9.154;2022-10-16T05:01:55;15.00;99.90
8459;DHT22;4266;48.816;9.154;2022-10-16T05:04:21;15.00;99.90
8459;DHT22;4266;48.816;9.154;2022-10-16T05:06:47;15.00;99.90
8459;DHT22;4266;48.816;9.154;2022-10-16T05:09:12;15.00;99.90
8459;DHT22;4266;48.816;9.154;2022-10-16T05:11:38;15.00;99.90
8459;DHT22;4266;48.816;9.154;2022-10-16T05:14:04;15.10;99.90
8459;DHT22;4266;48.816;9.154;2022-10-16T05:16:29;15.00;99.90
8459;DHT22;4266;48.816;9.154;2022-10-16T05:18:56;15.00;99.90
8459;DHT22;4266;48.816;9.154;2022-10-16T05:21:22;15.00;99.90
8459;DHT22;4266;48.816;9.154;2022-10-16T05:23:48;14.90;99.90
8459;DHT22;4266;48.816;9.154;2022-10-16T05:26:14;14.90;99.90
8459;DHT22;4266;48.816;9.154;2022-10-16T05:28:39;15.00;99.90
8459;DHT22;4266;48.816;9.154;2022-10-16T05:31:07;15.00;99.90
8459;DHT22;4266;48.816;9.154;2022-10-16T05:33:32;15.00;99.90
8459;DHT22;4266;48.816;9.154;2022-10-16T05:36:01;14.90;99.90
8459;DHT22;4266;48.816;9.154;2022-10-16T05:38:26;14.90;99.90
8459;DHT22;4266;48.816;9.154;2022-10-16T05:40:52;14.90;99.90
8459;DHT22;4266;48.816;9.154;2022-10-16T05:43:18;15.00;99.90
8459;DHT22;4266;48.816;9.154;2022-10-16T05:45:44;14.80;99.90
8459;DHT22;4266;48.816;9.154;2022-10-16T05:48:10;14.80;99.90
8459;DHT22;4266;48.816;9.154;2022-10-16T05:50:35;14.70;99.90
8459;DHT22;4266;48.816;9.154;2022-10-16T05:53:02;14.70;99.90
8459;DHT22;4266;48.816;9.154;2022-10-16T05:55:28;14.80;99.90
8459;DHT22;4266;48.816;9.154;2022-10-16T05:57:54;14.80;99.90
8459;DHT22;4266;48.816;9.154;2022-10-16T06:00:20;15.00;99.90
8459;DHT22;4266;48.816;9.154;2022-10-16T06:02:46;15.00;99.90
8459;DHT22;4266;48.816;9.154;2022-10-16T06:05:12;15.50;99.90
8459;DHT22;4266;48.816;9.154;2022-10-16T06:07:38;15.40;99.90
8459;DHT22;4266;48.816;9.154;2022-10-16T06:10:04;15.30;99.90
8459;DHT22;4266;48.816;9.154;2022-10-16T06:12:30;15.40;99.90
8459;DHT22;4266;48.816;9.154;2022-10-16T06:14:56;15.40;99.90
8459;DHT22;4266;48.816;9.154;2022-10-16T06:17:22;15.30;99.90
8459;DHT22;4266;48.816;9.154;2022-10-16T06:19:48;16.60;99.90
8459;DHT22;4266;48.816;9.154;2022-10-16T06:22:14;16.50;99.90
8459;DHT22;4266;48.816;9.154;2022-10-16T06:24:39;16.30;99.90
8459;DHT22;4266;48.816;9.154;2022-10-16T06:27:06;16.10;99.90
8459;DHT22;4266;48.816;9.154;2022-10-16T06:29:31;16.00;99.90
8459;DHT22;4266;48.816;9.154;2022-10-16T06:31:56;16.10;99.90
8459;DHT22;4266;48.816;9.154;2022-10-16T06:34:22;15.90;99.90
8459;DHT22;4266;48.816;9.154;2022-10-16T06:36:48;15.90;99.90
8459;DHT22;4266;48.816;9.154;2022-10-16T06:39:14;16.00;99.90
8459;DHT22;4266;48.816;9.154;2022-10-16T06:41:40;16.00;99.90
8459;DHT22;4266;48.816;9.154;2022-10-16T06:44:06;15.80;99.90
8459;DHT22;4266;48.816;9.154;2022-10-16T06:46:32;15.80;99.90
8459;DHT22;4266;48.816;9.154;2022-10-16T06:48:58;16.00;99.90
8459;DHT22;4266;48.816;9.154;2022-10-16T06:51:24;16.10;99.90
8459;DHT22;4266;48.816;9.154;2022-10-16T06:53:50;16.20;99.90
8459;DHT22;4266;48.816;9.154;2022-10-16T06:56:19;16.10;99.90
8459;DHT22;4266;48.816;9.154;2022-10-16T06:58:43;16.00;99.90
8459;DHT22;4266;48.816;9.154;2022-10-16T07:01:10;16.10;99.90
8459;DHT22;4266;48.816;9.154;2022-10-16T07:03:36;16.10;99.90
8459;DHT22;4266;48.816;9.154;2022-10-16T07:06:02;16.10;99.90
8459;DHT22;4266;48.816;9.154;2022-10-16T07:08:28;16.10;99.90
8459;DHT22;4266;48.816;9.154;2022-10-16T07:10:58;16.20;99.90
8459;DHT22;4266;48.816;9.154;2022-10-16T07:13:23;16.10;99.90
8459;DHT22;4266;48.816;9.154;2022-10-16T07:15:48;16.10;99.90
8459;DHT22;4266;48.816;9.154;2022-10-16T07:18:14;16.30;99.90
8459;DHT22;4266;48.816;9.154;2022-10-16T07:20:40;16.30;99.90
8459;DHT22;4266;48.816;9.154;2022-10-16T07:23:05;16.40;99.90
8459;DHT22;4266;48.816;9.154;2022-10-16T07:25:31;16.30;99.90
8459;DHT22;4266;48.816;9.154;2022-10-16T07:27:57;16.30;99.90
8459;DHT22;4266;48.816;9.154;2022-10-16T07:30:23;16.30;99.90
8459;DHT22;4266;48.816;9.154;2022-10-16T07:32:48;16.30;99.90
8459;DHT22;4266;48.816;9.154;2022-10-16T07:35:14;16.30;99.90
8459;DHT22;4266;48.816;9.154;2022-10-16T07:37:43;16.20;99.90
8459;DHT22;4266;48.816;9.154;2022-10-16T07:40:06;16.20;99.90
8459;DHT22;4266;48.816;9.154;2022-10-16T07:42:32;16.30;99.90
8459;DHT22;4266;48.816;9.154;2022-10-16T07:44:58;16.40;99.90
8459;DHT22;4266;48.816;9.154;2022-10-16T07:47:23;16.30;99.90
8459;DHT22;4266;48.816;9.154;2022-10-16T07:49:49;16.40;99.90
8459;DHT22;4266;48.816;9.154;2022-10-16T07:52:15;16.50;99.90
8459;DHT22;4266;48.816;9.154;2022-10-16T07:54:40;16.50;99.90
8459;DHT22;4266;48.816;9.154;2022-10-16T07:57:06;16.50;99.90
8459;DHT22;4266;48.816;9.154;2022-10-16T07:59:32;16.60;99.90
8459;DHT22;4266;48.816;9.154;2022-10-16T08:01:57;16.60;99.90
8459;DHT22;4266;48.816;9.154;2022-10-16T08:04:23;16.70;99.90
8459;DHT22;4266;48.816;9.154;2022-10-16T08:06:49;16.80;99.90
8459;DHT22;4266;48.816;9.154;2022-10-16T08:09:14;16.80;99.90
8459;DHT22;4266;48.816;9.154;2022-10-16T08:11:40;16.90;99.90
8459;DHT22;4266;48.816;9.154;2022-10-16T08:14:06;17.00;99.90
8459;DHT22;4266;48.816;9.154;2022-10-16T08:16:31;17.00;99.90
8459;DHT22;4266;48.816;9.154;2022-10-16T08:18:58;17.60;99.90
8459;DHT22;4266;48.816;9.154;2022-10-16T08:21:24;17.50;99.90
8459;DHT22;4266;48.816;9.154;2022-10-16T08:23:50;17.80;99.90
8459;DHT22;4266;48.816;9.154;2022-10-16T08:26:17;19.10;99.90
8459;DHT22;4266;48.816;9.154;2022-10-16T08:28:42;19.10;99.90
8459;DHT22;4266;48.816;9.154;2022-10-16T08:31:10;19.10;99.90
8459;DHT22;4266;48.816;9.154;2022-10-16T08:33:35;19.30;99.90
8459;DHT22;4266;48.816;9.154;2022-10-16T08:36:01;19.40;99.90
8459;DHT22;4266;48.816;9.154;2022-10-16T08:38:26;19.60;99.90
8459;DHT22;4266;48.816;9.154;2022-10-16T08:40:52;19.80;99.90
8459;DHT22;4266;48.816;9.154;2022-10-16T08:43:39;19.90;99.90
8459;DHT22;4266;48.816;9.154;2022-10-16T08:46:10;20.00;99.90
8459;DHT22;4266;48.816;9.154;2022-10-16T08:48:43;19.90;99.90
8459;DHT22;4266;48.816;9.154;2022-10-16T08:51:07;19.70;99.90
8459;DHT22;4266;48.816;9.154;2022-10-16T08:53:39;19.50;99.90
8459;DHT22;4266;48.816;9.154;2022-10-16T08:56:03;19.40;99.60
8459;DHT22;4266;48.816;9.154;2022-10-16T08:58:30;19.30;99.60
8459;DHT22;4266;48.816;9.154;2022-10-16T09:00:57;19.30;99.60
8459;DHT22;4266;48.816;9.154;2022-10-16T09:03:38;19.60;99.90
8459;DHT22;4266;48.816;9.154;2022-10-16T09:06:21;19.80;99.80
8459;DHT22;4266;48.816;9.154;2022-10-16T09:08:57;19.80;99.90
8459;DHT22;4266;48.816;9.154;2022-10-16T09:11:31;19.70;99.90
8459;DHT22;4266;48.816;9.154;2022-10-16T09:16:34;20.10;99.50
8459;DHT22;4266;48.816;9.154;2022-10-16T09:19:21;20.40;99.30
8459;DHT22;4266;48.816;9.154;2022-10-16T09:21:45;20.80;99.50
8459;DHT22;4266;48.816;9.154;2022-10-16T09:24:17;21.30;98.70
8459;DHT22;4266;48.816;9.154;2022-10-16T09:26:41;21.50;98.30
8459;DHT22;4266;48.816;9.154;2022-10-16T09:29:10;22.00;98.10
8459;DHT22;4266;48.816;9.154;2022-10-16T09:31:33;22.00;98.10
8459;DHT22;4266;48.816;9.154;2022-10-16T09:33:59;22.00;98.00
8459;DHT22;4266;48.816;9.154;2022-10-16T09:36:25;22.10;98.30
8459;DHT22;4266;48.816;9.154;2022-10-16T09:39:00;22.80;98.20
8459;DHT22;4266;48.816;9.154;2022-10-16T09:41:19;22.40;98.50
8459;DHT22;4266;48.816;9.154;2022-10-16T09:43:55;22.10;98.00
8459;DHT22;4266;48.816;9.154;2022-10-16T09:46:27;22.00;98.10
8459;DHT22;4266;48.816;9.154;2022-10-16T09:48:53;21.90;98.20
8459;DHT22;4266;48.816;9.154;2022-10-16T09:51:21;21.90;98.20
8459;DHT22;4266;48.816;9.154;2022-10-16T09:53:45;22.30;98.10
8459;DHT22;4266;48.816;9.154;2022-10-16T09:56:11;22.90;97.90
8459;DHT22;4266;48.816;9.154;2022-10-16T09:58:37;23.50;97.40
8459;DHT22;4266;48.816;9.154;2022-10-16T10:01:04;23.90;97.30
8459;DHT22;4266;48.816;9.154;2022-10-16T10:03:33;24.00;97.40
8459;DHT22;4266;48.816;9.154;2022-10-16T10:05:58;24.10;97.00
8459;DHT22;4266;48.816;9.154;2022-10-16T10:08:23;24.10;97.00
8459;DHT22;4266;48.816;9.154;2022-10-16T10:10:49;24.20;97.10
8459;DHT22;4266;48.816;9.154;2022-10-16T10:13:19;24.00;96.60
8459;DHT22;4266;48.816;9.154;2022-10-16T10:15:44;24.10;97.00
8459;DHT22;4266;48.816;9.154;2022-10-16T10:18:15;24.20;96.30
8459;DHT22;4266;48.816;9.154;2022-10-16T10:20:40;24.20;96.00
8459;DHT22;4266;48.816;9.154;2022-10-16T10:23:19;24.20;96.00
8459;DHT22;4266;48.816;9.154;2022-10-16T10:25:43;24.10;95.00
8459;DHT22;4266;48.816;9.154;2022-10-16T10:28:18;24.40;95.30
8459;DHT22;4266;48.816;9.154;2022-10-16T10:33:28;24.50;94.90
8459;DHT22;4266;48.816;9.154;2022-10-16T10:35:55;25.30;95.40
8459;DHT22;4266;48.816;9.154;2022-10-16T10:38:30;25.20;94.80
8459;DHT22;4266;48.816;9.154;2022-10-16T10:41:05;25.50;94.30
8459;DHT22;4266;48.816;9.154;2022-10-16T10:43:38;25.60;94.60
8459;DHT22;4266;48.816;9.154;2022-10-16T10:46:00;25.60;93.90
8459;DHT22;4266;48.816;9.154;2022-10-16T10:48:41;25.80;93.90
8459;DHT22;4266;48.816;9.154;2022-10-16T10:51:19;25.80;93.90
8459;DHT22;4266;48.816;9.154;2022-10-16T10:53:47;26.40;93.00
8459;DHT22;4266;48.816;9.154;2022-10-16T10:59:02;26.50;92.80
8459;DHT22;4266;48.816;9.154;2022-10-16T11:01:40;26.50;92.80
8459;DHT22;4266;48.816;9.154;2022-10-16T11:04:21;26.00;93.00
8459;DHT22;4266;48.816;9.154;2022-10-16T11:06:45;26.00;93.00
8459;DHT22;4266;48.816;9.154;2022-10-16T11:09:13;26.70;93.70
8459;DHT22;4266;48.816;9.154;2022-10-16T11:11:40;27.30;93.20
8459;DHT22;4266;48.816;9.154;2022-10-16T11:14:21;27.20;92.80
8459;DHT22;4266;48.816;9.154;2022-10-16T11:16:58;29.50;91.70
8459;DHT22;4266;48.816;9.154;2022-10-16T11:19:56;29.40;91.60
8459;DHT22;4266;48.816;9.154;2022-10-16T11:22:08;31.60;90.00
8459;DHT22;4266;48.816;9.154;2022-10-16T11:24:41;32.20;87.40
8459;DHT22;4266;48.816;9.154;2022-10-16T11:27:07;30.80;84.50
8459;DHT22;4266;48.816;9.154;2022-10-16T11:29:31;30.80;84.40
8459;DHT22;4266;48.816;9.154;2022-10-16T11:32:01;30.20;84.90
8459;DHT22;4266;48.816;9.154;2022-10-16T11:34:35;30.70;84.50
8459;DHT22;4266;48.816;9.154;2022-10-16T11:37:05;30.20;84.20
8459;DHT22;4266;48.816;9.154;2022-10-16T11:39:28;30.50;83.40
8459;DHT22;4266;48.816;9.154;2022-10-16T11:41:55;28.60;83.70
8459;DHT22;4266;48.816;9.154;2022-10-16T11:44:31;30.30;82.60
8459;DHT22;4266;48.816;9.154;2022-10-16T11:46:58;31.50;80.00
8459;DHT22;4266;48.816;9.154;2022-10-16T11:49:19;32.30;80.80
8459;DHT22;4266;48.816;9.154;2022-10-16T11:51:48;32.30;80.90
8459;DHT22;4266;48.816;9.154;2022-10-16T11:54:48;32.20;79.90
8459;DHT22;4266;48.816;9.154;2022-10-16T11:56:57;32.20;79.90
8459;DHT22;4266;48.816;9.154;2022-10-16T11:59:41;32.70;77.90
8459;DHT22;4266;48.816;9.154;2022-10-16T12:04:42;32.30;77.10
8459;DHT22;4266;48.816;9.154;2022-10-16T12:07:07;33.20;77.20
8459;DHT22;4266;48.816;9.154;2022-10-16T12:09:33;33.70;74.60
8459;DHT22;4266;48.816;9.154;2022-10-16T12:11:58;32.70;76.30
8459;DHT22;4266;48.816;9.154;2022-10-16T12:14:37;30.90;77.40
8459;DHT22;4266;48.816;9.154;2022-10-16T12:17:03;30.80;77.30
8459;DHT22;4266;48.816;9.154;2022-10-16T12:19:28;29.80;77.40
8459;DHT22;4266;48.816;9.154;2022-10-16T12:21:57;29.10;77.60
8459;DHT22;4266;48.816;9.154;2022-10-16T12:24:35;28.20;78.80
8459;DHT22;4266;48.816;9.154;2022-10-16T12:27:01;28.10;78.70
8459;DHT22;4266;48.816;9.154;2022-10-16T12:29:38;28.10;78.30
8459;DHT22;4266;48.816;9.154;2022-10-16T12:32:05;27.70;80.90
8459;DHT22;4266;48.816;9.154;2022-10-16T12:34:39;27.90;80.10
8459;DHT22;4266;48.816;9.154;2022-10-16T12:37:15;28.00;80.30
8459;DHT22;4266;48.816;9.154;2022-10-16T12:39:40;28.10;80.30
8459;DHT22;4266;48.816;9.154;2022-10-16T12:44:45;28.00;78.80
8459;DHT22;4266;48.816;9.154;2022-10-16T12:47:20;28.20;80.30
8459;DHT22;4266;48.816;9.154;2022-10-16T12:49:48;28.90;80.30
8459;DHT22;4266;48.816;9.154;2022-10-16T12:52:25;28.20;80.00
8459;DHT22;4266;48.816;9.154;2022-10-16T12:54:50;28.80;81.30
8459;DHT22;4266;48.816;9.154;2022-10-16T12:58:06;28.70;81.10
8459;DHT22;4266;48.816;9.154;2022-10-16T13:00:22;29.30;80.70
8459;DHT22;4266;48.816;9.154;2022-10-16T13:06:59;28.50;80.40
8459;DHT22;4266;48.816;9.154;2022-10-16T13:08:36;27.70;80.10
8459;DHT22;4266;48.816;9.154;2022-10-16T13:11:17;27.90;82.10
8459;DHT22;4266;48.816;9.154;2022-10-16T13:13:58;27.70;81.30
8459;DHT22;4266;48.816;9.154;2022-10-16T13:16:48;26.40;80.60
8459;DHT22;4266;48.816;9.154;2022-10-16T13:19:28;26.40;83.30
8459;DHT22;4266;48.816;9.154;2022-10-16T13:21:56;26.60;82.20
8459;DHT22;4266;48.816;9.154;2022-10-16T13:24:21;26.60;82.00
8459;DHT22;4266;48.816;9.154;2022-10-16T13:29:29;26.10;82.40
8459;DHT22;4266;48.816;9.154;2022-10-16T13:31:51;26.10;83.70
8459;DHT22;4266;48.816;9.154;2022-10-16T13:34:19;25.80;81.40
8459;DHT22;4266;48.816;9.154;2022-10-16T13:36:44;25.60;83.40
8459;DHT22;4266;48.816;9.154;2022-10-16T13:39:25;25.50;84.90
8459;DHT22;4266;48.816;9.154;2022-10-16T13:42:03;25.40;83.60
8459;DHT22;4266;48.816;9.154;2022-10-16T13:44:27;25.40;82.50
8459;DHT22;4266;48.816;9.154;2022-10-16T13:46:59;25.50;83.50
8459;DHT22;4266;48.816;9.154;2022-10-16T13:49:25;25.30;82.80
8459;DHT22;4266;48.816;9.154;2022-10-16T13:51:56;25.30;82.70
8459;DHT22;4266;48.816;9.154;2022-10-16T13:54:22;25.80;82.10
8459;DHT22;4266;48.816;9.154;2022-10-16T13:56:48;25.80;81.80
8459;DHT22;4266;48.816;9.154;2022-10-16T13:59:23;25.80;81.80
8459;DHT22;4266;48.816;9.154;2022-10-16T14:01:47;25.40;82.30
8459;DHT22;4266;48.816;9.154;2022-10-16T14:04:13;25.40;81.80
8459;DHT22;4266;48.816;9.154;2022-10-16T14:06:41;24.20;82.90
8459;DHT22;4266;48.816;9.154;2022-10-16T14:09:06;24.10;82.60
8459;DHT22;4266;48.816;9.154;2022-10-16T14:11:31;24.40;83.30
8459;DHT22;4266;48.816;9.154;2022-10-16T14:13:57;24.50;83.20
8459;DHT22;4266;48.816;9.154;2022-10-16T14:16:25;24.50;83.50
8459;DHT22;4266;48.816;9.154;2022-10-16T14:18:56;24.20;84.30
8459;DHT22;4266;48.816;9.154;2022-10-16T14:21:21;24.00;84.80
8459;DHT22;4266;48.816;9.154;2022-10-16T14:23:47;24.10;84.70
8459;DHT22;4266;48.816;9.154;2022-10-16T14:26:13;24.40;84.40
8459;DHT22;4266;48.816;9.154;2022-10-16T14:28:38;24.10;83.50
8459;DHT22;4266;48.816;9.154;2022-10-16T14:31:19;24.00;84.20
8459;DHT22;4266;48.816;9.154;2022-10-16T14:33:32;24.10;85.90
8459;DHT22;4266;48.816;9.154;2022-10-16T14:36:00;24.30;84.30
8459;DHT22;4266;48.816;9.154;2022-10-16T14:38:24;23.90;87.90
8459;DHT22;4266;48.816;9.154;2022-10-16T14:40:50;23.70;87.10
8459;DHT22;4266;48.816;9.154;2022-10-16T14:43:20;23.50;90.30
8459;DHT22;4266;48.816;9.154;2022-10-16T14:45:43;23.50;90.20
8459;DHT22;4266;48.816;9.154;2022-10-16T14:48:14;23.40;90.50
8459;DHT22;4266;48.816;9.154;2022-10-16T14:50:34;23.50;90.90
8459;DHT22;4266;48.816;9.154;2022-10-16T14:53:00;23.50;90.90
8459;DHT22;4266;48.816;9.154;2022-10-16T14:55:27;23.60;91.30
8459;DHT22;4266;48.816;9.154;2022-10-16T14:57:53;23.60;91.00
8459;DHT22;4266;48.816;9.154;2022-10-16T15:00:22;23.40;91.40
8459;DHT22;4266;48.816;9.154;2022-10-16T15:02:47;23.30;91.30
8459;DHT22;4266;48.816;9.154;2022-10-16T15:05:19;23.30;91.30
8459;DHT22;4266;48.816;9.154;2022-10-16T15:07:44;23.20;91.80
8459;DHT22;4266;48.816;9.154;2022-10-16T15:10:10;23.10;92.00
8459;DHT22;4266;48.816;9.154;2022-10-16T15:12:36;23.10;92.30
8459;DHT22;4266;48.816;9.154;2022-10-16T15:15:09;23.10;92.20
8459;DHT22;4266;48.816;9.154;2022-10-16T15:17:28;23.10;92.20
8459;DHT22;4266;48.816;9.154;2022-10-16T15:19:54;23.00;91.80
8459;DHT22;4266;48.816;9.154;2022-10-16T15:22:20;23.10;92.00
8459;DHT22;4266;48.816;9.154;2022-10-16T15:24:46;23.00;91.80
8459;DHT22;4266;48.816;9.154;2022-10-16T15:27:11;22.80;91.70
8459;DHT22;4266;48.816;9.154;2022-10-16T15:29:37;22.80;91.70
8459;DHT22;4266;48.816;9.154;2022-10-16T15:32:03;22.70;91.90
8459;DHT22;4266;48.816;9.154;2022-10-16T15:34:29;22.50;92.00
8459;DHT22;4266;48.816;9.154;2022-10-16T15:36:55;22.50;92.30
8459;DHT22;4266;48.816;9.154;2022-10-16T15:39:21;22.30;92.10
8459;DHT22;4266;48.816;9.154;2022-10-16T15:41:48;22.20;92.40
8459;DHT22;4266;48.816;9.154;2022-10-16T15:44:14;22.20;92.30
8459;DHT22;4266;48.816;9.154;2022-10-16T15:46:40;22.20;92.40
8459;DHT22;4266;48.816;9.154;2022-10-16T15:49:07;22.10;92.50
8459;DHT22;4266;48.816;9.154;2022-10-16T15:51:32;22.10;92.40
8459;DHT22;4266;48.816;9.154;2022-10-16T15:53:58;21.80;92.70
8459;DHT22;4266;48.816;9.154;2022-10-16T15:56:24;21.90;92.90
8459;DHT22;4266;48.816;9.154;2022-10-16T15:58:50;21.90;92.90
8459;DHT22;4266;48.816;9.154;2022-10-16T16:01:16;21.90;92.80
8459;DHT22;4266;48.816;9.154;2022-10-16T16:03:42;21.80;92.90
8459;DHT22;4266;48.816;9.154;2022-10-16T16:06:08;21.70;93.10
8459;DHT22;4266;48.816;9.154;2022-10-16T16:08:33;21.70;93.20
8459;DHT22;4266;48.816;9.154;2022-10-16T16:11:01;21.60;93.40
8459;DHT22;4266;48.816;9.154;2022-10-16T16:13:26;21.40;93.80
8459;DHT22;4266;48.816;9.154;2022-10-16T16:15:52;21.40;93.80
8459;DHT22;4266;48.816;9.154;2022-10-16T16:18:18;21.30;94.00
8459;DHT22;4266;48.816;9.154;2022-10-16T16:20:44;21.20;94.00
8459;DHT22;4266;48.816;9.154;2022-10-16T16:23:11;21.00;94.60
8459;DHT22;4266;48.816;9.154;2022-10-16T16:25:37;21.00;94.50
8459;DHT22;4266;48.816;9.154;2022-10-16T16:28:03;20.90;94.70
8459;DHT22;4266;48.816;9.154;2022-10-16T16:30:29;20.90;95.10